Nearby METAR Reports

KLNK - Lincoln, Nebraska, USA
Distance from station: WNW 8mi, 13km
Updated: Mon, 30-Mar-2020 3:54am CDT
Clear
Clear
 Wind from NNW
Wind: NNW 6 mph , 9 km/h
Temperature: 34°F , 1°C
Wind Chill: 29°F , -2°C
Dew Point: 28°F , -2°C
Humidity: 81%
Barometer: 30.17 inHg , 1021.7 hPa
Clouds: Clear
Visibility: 10 miles , 16 km
2020/03/30 08:54 KLNK 300854Z AUTO 33005KT 10SM CLR 01/M02 A3017 RMK AO2 SLP220 T00061017 51005
KAHQ - Wahoo, Nebraska, USA
Distance from station: N 31mi, 49km
Updated: Mon, 30-Mar-2020 4:15am CDT
Clear
Clear
 Wind from calm
Wind: Calm
Temperature: 34°F , 1°C
Dew Point: 30°F , -1°C
Humidity: 87%
Barometer: 30.17 inHg , 1021.7 hPa
Clouds: Clear
Visibility: 10 miles , 16 km
2020/03/30 09:15 KAHQ 300915Z AUTO 00000KT 10SM CLR 01/M01 A3017 RMK AO2 T00081013
 
KBIE - Beatrice Municip, Nebraska, USA
Distance from station: S 36mi, 57km
Updated: Mon, 30-Mar-2020 4:15am CDT
Clear
Clear
 Wind from calm
Wind: Calm
Temperature: 36°F , 2°C
Dew Point: 30°F , -1°C
Humidity: 81%
Barometer: 30.17 inHg , 1021.7 hPa
Clouds: Clear
Visibility: 10 miles , 16 km
2020/03/30 09:15 KBIE 300915Z AUTO 00000KT 10SM CLR 02/M01 A3017 RMK AO2 T00211009
KMLE - Omaha/Millard, Nebraska, USA
Distance from station: NE 39mi, 63km
Updated: Mon, 30-Mar-2020 4:15am CDT
Clear
Clear
 Wind from calm
Wind: Calm
Temperature: 37°F , 3°C
Dew Point: 32°F , 0°C
Humidity: 81%
Barometer: 30.18 inHg , 1022 hPa
Clouds: Clear
Visibility: 10 miles , 16 km
2020/03/30 09:15 KMLE 300915Z AUTO 00000KT 10SM CLR 03/00 A3018 RMK AO2 T00250001
 
KPMV - Plattsmouth Muni, Nebraska, USA
Distance from station: ENE 39mi, 63km
Updated: Mon, 30-Mar-2020 4:15am CDT
Clear
Clear
 Wind from ESE
Wind: ESE 3 mph , 6 km/h
Temperature: 45°F , 7°C
Dew Point: 25°F , -4°C
Humidity: 46%
Barometer: 30.17 inHg , 1021.7 hPa
Clouds: Clear
Visibility: 10 miles , 16 km
2020/03/30 09:15 KPMV 300915Z AUTO 11003KT 10SM CLR 07/M04 A3017 RMK AO2 T00701041
KAFK - Nebraska City, Nebraska, USA
Distance from station: ESE 43mi, 69km
Updated: Mon, 30-Mar-2020 4:15am CDT
Clear
Clear
 Wind from calm
Wind: Calm
Temperature: 46°F , 8°C
Dew Point: 28°F , -2°C
Humidity: 50%
Barometer: 30.18 inHg , 1022 hPa
Clouds: Clear
Visibility: 10 miles , 16 km
2020/03/30 09:15 KAFK 300915Z AUTO 00000KT 10SM CLR 08/M02 A3018 RMK AO2 T00751024
 
KOFF - Offutt Afb/Belle, Nebraska, USA
Distance from station: ENE 44mi, 70km
Updated: Mon, 30-Mar-2020 3:58am CDT
Clear
Clear
 Wind from varies
Wind: varies 7 mph , 11 km/h
Temperature: 41°F , 5°C
Wind Chill: 36°F , 2°C
Dew Point: 32°F , 0°C
Humidity: 70%
Barometer: 30.15 inHg , 1021 hPa
Clouds: Clear
Visibility: 10 miles , 16 km
2020/03/30 08:58 KOFF 300858Z VRB06KT 10SM CLR 05/00 A3015 RMK A02A SLPNO ALSTG ESTMD
KFET - Fremont Muni Arp, Nebraska, USA
Distance from station: N 46mi, 74km
Updated: Mon, 30-Mar-2020 4:15am CDT
Clear
Clear
 Wind from calm
Wind: Calm
Temperature: 36°F , 2°C
Dew Point: 32°F , 0°C
Humidity: 87%
Barometer: 30.17 inHg , 1021.7 hPa
Clouds: Clear
Visibility: 10 miles , 16 km
2020/03/30 09:15 KFET 300915Z AUTO 00000KT 10SM CLR 02/00 A3017 RMK AO2 T00230003
 
KBTA - Blair Muni, Nebraska, USA
Distance from station: NNE 51mi, 82km
Updated: Mon, 30-Mar-2020 4:15am CDT
Clear
Clear
 Wind from calm
Wind: Calm
Temperature: 39°F , 4°C
Dew Point: 27°F , -3°C
Humidity: 61%
Barometer: 30.17 inHg , 1021.7 hPa
Clouds: Clear
Visibility: 10 miles , 16 km
2020/03/30 09:15 KBTA 300915Z AUTO 00000KT 10SM CLR 04/M03 A3017 RMK AO2 T00421031
KJYR - York, Nebraska, USA
Distance from station: W 52mi, 84km
Updated: Mon, 30-Mar-2020 4:15am CDT
Clear
Clear
 Wind from SSE
Wind: SSE 9 mph , 15 km/h
Temperature: 41°F , 5°C
Wind Chill: 35°F , 2°C
Dew Point: 32°F , 0°C
Humidity: 70%
Barometer: 30.16 inHg , 1021.3 hPa
Clouds: Clear
Visibility: 10 miles , 16 km
2020/03/30 09:15 KJYR 300915Z AUTO 16008KT 10SM CLR 05/00 A3016 RMK AO2
 
KOMA - Omaha/Eppley, Nebraska, USA
Distance from station: NE 53mi, 85km
Updated: Mon, 30-Mar-2020 3:52am CDT
Clear
Clear
 Wind from calm
Wind: Calm
Temperature: 34°F , 1°C
Dew Point: 30°F , -1°C
Humidity: 87%
Barometer: 30.17 inHg , 1021.7 hPa
Clouds: Clear
Visibility: 10 miles , 16 km
2020/03/30 08:52 KOMA 300852Z 00000KT 10SM CLR 01/M01 A3017 RMK AO2 SLP219 T00061011 50006
KOLU - Columbus Muni, Nebraska, USA
Distance from station: NW 58mi, 93km
Updated: Mon, 30-Mar-2020 3:56am CDT
Clear
Clear
 Wind from calm
Wind: Calm
Temperature: 30°F , -1°C
Dew Point: 28°F , -2°C
Humidity: 93%
Barometer: 30.17 inHg , 1021.7 hPa
Clouds: Clear
Visibility: 10 miles , 16 km
2020/03/30 08:56 KOLU 300856Z AUTO 00000KT 10SM CLR M01/M02 A3017 RMK AO2 SLP224 T10061022 51005 FZRANO